sensor_id;sensor_type;location;lat;lon;timestamp;temperature;humidity
51595;DHT22;37677;53.254;6.594;2022-10-30T00:00:23;14.40;27.00
51595;DHT22;37677;53.254;6.594;2022-10-30T00:02:49;14.60;27.20
51595;DHT22;37677;53.254;6.594;2022-10-30T00:05:15;14.50;27.00
51595;DHT22;37677;53.254;6.594;2022-10-30T00:07:41;14.40;26.90
51595;DHT22;37677;53.254;6.594;2022-10-30T00:10:08;14.40;26.80
51595;DHT22;37677;53.254;6.594;2022-10-30T00:12:33;14.40;26.90
51595;DHT22;37677;53.254;6.594;2022-10-30T00:15:00;14.30;26.80
51595;DHT22;37677;53.254;6.594;2022-10-30T00:17:25;14.40;26.80
51595;DHT22;37677;53.254;6.594;2022-10-30T00:19:51;14.40;27.30
51595;DHT22;37677;53.254;6.594;2022-10-30T00:22:17;14.40;26.90
51595;DHT22;37677;53.254;6.594;2022-10-30T00:24:42;14.40;26.60
51595;DHT22;37677;53.254;6.594;2022-10-30T00:27:08;14.40;26.70
51595;DHT22;37677;53.254;6.594;2022-10-30T00:29:33;14.50;26.40
51595;DHT22;37677;53.254;6.594;2022-10-30T00:31:59;14.50;26.20
51595;DHT22;37677;53.254;6.594;2022-10-30T00:34:25;14.80;25.80
51595;DHT22;37677;53.254;6.594;2022-10-30T00:36:50;14.40;25.00
51595;DHT22;37677;53.254;6.594;2022-10-30T00:39:16;14.50;24.40
51595;DHT22;37677;53.254;6.594;2022-10-30T00:41:41;14.50;24.10
51595;DHT22;37677;53.254;6.594;2022-10-30T00:44:46;14.50;24.30
51595;DHT22;37677;53.254;6.594;2022-10-30T00:52:35;14.50;23.40
51595;DHT22;37677;53.254;6.594;2022-10-30T00:55:08;14.50;23.10
51595;DHT22;37677;53.254;6.594;2022-10-30T00:57:35;14.50;23.30
51595;DHT22;37677;53.254;6.594;2022-10-30T01:00:04;14.50;23.00
51595;DHT22;37677;53.254;6.594;2022-10-30T01:02:30;14.60;22.90
51595;DHT22;37677;53.254;6.594;2022-10-30T01:04:56;14.70;22.60
51595;DHT22;37677;53.254;6.594;2022-10-30T01:07:23;14.60;22.10
51595;DHT22;37677;53.254;6.594;2022-10-30T01:09:48;14.50;21.90
51595;DHT22;37677;53.254;6.594;2022-10-30T01:12:14;14.60;21.50
51595;DHT22;37677;53.254;6.594;2022-10-30T01:14:46;14.80;21.40
51595;DHT22;37677;53.254;6.594;2022-10-30T01:23:19;14.50;21.00
51595;DHT22;37677;53.254;6.594;2022-10-30T01:25:58;14.50;21.20
51595;DHT22;37677;53.254;6.594;2022-10-30T01:31:37;14.80;20.40
51595;DHT22;37677;53.254;6.594;2022-10-30T01:34:29;14.50;20.10
51595;DHT22;37677;53.254;6.594;2022-10-30T01:37:07;14.50;19.80
51595;DHT22;37677;53.254;6.594;2022-10-30T01:39:34;14.50;20.30
51595;DHT22;37677;53.254;6.594;2022-10-30T01:45:06;14.50;20.40
51595;DHT22;37677;53.254;6.594;2022-10-30T01:50:53;14.50;20.10
51595;DHT22;37677;53.254;6.594;2022-10-30T01:59:16;14.50;19.20
51595;DHT22;37677;53.254;6.594;2022-10-30T02:01:42;14.60;19.50
51595;DHT22;37677;53.254;6.594;2022-10-30T02:04:09;14.50;19.30
51595;DHT22;37677;53.254;6.594;2022-10-30T02:06:37;14.40;18.80
51595;DHT22;37677;53.254;6.594;2022-10-30T02:09:03;14.50;18.90
51595;DHT22;37677;53.254;6.594;2022-10-30T02:11:31;15.70;19.50
51595;DHT22;37677;53.254;6.594;2022-10-30T02:14:00;14.50;19.20
51595;DHT22;37677;53.254;6.594;2022-10-30T02:16:26;14.50;19.30
51595;DHT22;37677;53.254;6.594;2022-10-30T02:18:52;14.50;19.30
51595;DHT22;37677;53.254;6.594;2022-10-30T02:21:18;14.60;19.70
51595;DHT22;37677;53.254;6.594;2022-10-30T02:23:44;14.50;20.20
51595;DHT22;37677;53.254;6.594;2022-10-30T02:26:09;14.90;20.50
51595;DHT22;37677;53.254;6.594;2022-10-30T02:28:35;14.50;20.00
51595;DHT22;37677;53.254;6.594;2022-10-30T02:31:01;14.50;19.50
51595;DHT22;37677;53.254;6.594;2022-10-30T02:33:26;14.50;19.20
51595;DHT22;37677;53.254;6.594;2022-10-30T02:35:52;14.70;19.60
51595;DHT22;37677;53.254;6.594;2022-10-30T02:38:19;14.50;19.00
51595;DHT22;37677;53.254;6.594;2022-10-30T02:40:44;14.90;18.90
51595;DHT22;37677;53.254;6.594;2022-10-30T02:43:10;14.60;18.30
51595;DHT22;37677;53.254;6.594;2022-10-30T02:45:36;14.50;18.10
51595;DHT22;37677;53.254;6.594;2022-10-30T02:48:01;14.60;18.50
51595;DHT22;37677;53.254;6.594;2022-10-30T02:50:27;14.50;17.90
51595;DHT22;37677;53.254;6.594;2022-10-30T02:52:53;14.50;17.60
51595;DHT22;37677;53.254;6.594;2022-10-30T02:55:18;14.50;17.70
51595;DHT22;37677;53.254;6.594;2022-10-30T02:57:44;14.40;17.60
51595;DHT22;37677;53.254;6.594;2022-10-30T03:00:10;14.40;17.80
51595;DHT22;37677;53.254;6.594;2022-10-30T03:02:36;14.50;17.60
51595;DHT22;37677;53.254;6.594;2022-10-30T03:05:02;14.90;17.80
51595;DHT22;37677;53.254;6.594;2022-10-30T03:07:28;14.50;17.70
51595;DHT22;37677;53.254;6.594;2022-10-30T03:09:53;14.40;17.40
51595;DHT22;37677;53.254;6.594;2022-10-30T03:12:19;14.60;17.20
51595;DHT22;37677;53.254;6.594;2022-10-30T03:14:45;14.60;17.20
51595;DHT22;37677;53.254;6.594;2022-10-30T03:17:11;14.80;17.30
51595;DHT22;37677;53.254;6.594;2022-10-30T03:19:36;14.30;17.10
51595;DHT22;37677;53.254;6.594;2022-10-30T03:22:02;14.30;17.20
51595;DHT22;37677;53.254;6.594;2022-10-30T03:24:28;14.30;17.50
51595;DHT22;37677;53.254;6.594;2022-10-30T03:26:53;14.30;17.60
51595;DHT22;37677;53.254;6.594;2022-10-30T03:29:19;14.30;17.80
51595;DHT22;37677;53.254;6.594;2022-10-30T03:31:44;14.30;19.00
51595;DHT22;37677;53.254;6.594;2022-10-30T03:34:10;14.20;18.90
51595;DHT22;37677;53.254;6.594;2022-10-30T03:36:36;14.50;19.00
51595;DHT22;37677;53.254;6.594;2022-10-30T03:39:01;14.20;19.50
51595;DHT22;37677;53.254;6.594;2022-10-30T03:41:27;14.20;19.90
51595;DHT22;37677;53.254;6.594;2022-10-30T03:43:52;14.20;20.40
51595;DHT22;37677;53.254;6.594;2022-10-30T03:46:18;14.30;20.30
51595;DHT22;37677;53.254;6.594;2022-10-30T03:48:47;14.20;20.70
51595;DHT22;37677;53.254;6.594;2022-10-30T03:51:14;14.20;20.40
51595;DHT22;37677;53.254;6.594;2022-10-30T03:53:39;14.20;20.90
51595;DHT22;37677;53.254;6.594;2022-10-30T03:56:05;14.30;20.60
51595;DHT22;37677;53.254;6.594;2022-10-30T03:58:31;14.20;21.50
51595;DHT22;37677;53.254;6.594;2022-10-30T04:01:04;14.30;22.00
51595;DHT22;37677;53.254;6.594;2022-10-30T04:03:31;14.40;22.20
51595;DHT22;37677;53.254;6.594;2022-10-30T04:05:56;14.40;21.30
51595;DHT22;37677;53.254;6.594;2022-10-30T04:08:22;14.30;20.70
51595;DHT22;37677;53.254;6.594;2022-10-30T04:10:48;14.40;20.70
51595;DHT22;37677;53.254;6.594;2022-10-30T04:13:15;15.00;20.20
51595;DHT22;37677;53.254;6.594;2022-10-30T04:15:41;14.30;19.90
51595;DHT22;37677;53.254;6.594;2022-10-30T04:18:10;14.20;19.70
51595;DHT22;37677;53.254;6.594;2022-10-30T04:20:36;14.20;19.60
51595;DHT22;37677;53.254;6.594;2022-10-30T04:23:04;14.60;20.00
51595;DHT22;37677;53.254;6.594;2022-10-30T04:25:30;14.60;19.60
51595;DHT22;37677;53.254;6.594;2022-10-30T04:27:57;14.40;19.50
51595;DHT22;37677;53.254;6.594;2022-10-30T04:30:23;14.10;20.00
51595;DHT22;37677;53.254;6.594;2022-10-30T04:32:53;14.00;20.80
51595;DHT22;37677;53.254;6.594;2022-10-30T04:35:20;14.40;21.30
51595;DHT22;37677;53.254;6.594;2022-10-30T04:37:56;14.10;21.50
51595;DHT22;37677;53.254;6.594;2022-10-30T04:40:24;14.00;21.50
51595;DHT22;37677;53.254;6.594;2022-10-30T04:42:50;14.00;22.00
51595;DHT22;37677;53.254;6.594;2022-10-30T04:45:16;12.60;21.80
51595;DHT22;37677;53.254;6.594;2022-10-30T04:47:42;13.90;22.40
51595;DHT22;37677;53.254;6.594;2022-10-30T04:50:08;14.10;23.90
51595;DHT22;37677;53.254;6.594;2022-10-30T04:52:34;13.90;23.90
51595;DHT22;37677;53.254;6.594;2022-10-30T04:54:59;13.90;23.80
51595;DHT22;37677;53.254;6.594;2022-10-30T04:57:25;13.90;24.10
51595;DHT22;37677;53.254;6.594;2022-10-30T04:59:50;13.90;24.30
51595;DHT22;37677;53.254;6.594;2022-10-30T05:02:16;13.90;24.50
51595;DHT22;37677;53.254;6.594;2022-10-30T05:04:44;13.90;24.60
51595;DHT22;37677;53.254;6.594;2022-10-30T05:07:11;13.90;24.70
51595;DHT22;37677;53.254;6.594;2022-10-30T05:09:37;14.20;25.10
51595;DHT22;37677;53.254;6.594;2022-10-30T05:12:03;14.20;25.80
51595;DHT22;37677;53.254;6.594;2022-10-30T05:14:30;13.90;26.50
51595;DHT22;37677;53.254;6.594;2022-10-30T05:16:56;13.80;26.50
51595;DHT22;37677;53.254;6.594;2022-10-30T05:19:22;14.20;27.10
51595;DHT22;37677;53.254;6.594;2022-10-30T05:21:47;13.80;27.20
51595;DHT22;37677;53.254;6.594;2022-10-30T05:24:13;13.80;27.70
51595;DHT22;37677;53.254;6.594;2022-10-30T05:26:39;13.80;27.60
51595;DHT22;37677;53.254;6.594;2022-10-30T05:29:04;14.60;27.90
51595;DHT22;37677;53.254;6.594;2022-10-30T05:31:30;14.40;28.00
51595;DHT22;37677;53.254;6.594;2022-10-30T05:33:55;14.20;28.00
51595;DHT22;37677;53.254;6.594;2022-10-30T05:36:21;14.00;28.00
51595;DHT22;37677;53.254;6.594;2022-10-30T05:38:47;13.70;28.20
51595;DHT22;37677;53.254;6.594;2022-10-30T05:41:13;13.70;28.60
51595;DHT22;37677;53.254;6.594;2022-10-30T05:43:38;14.20;28.90
51595;DHT22;37677;53.254;6.594;2022-10-30T05:46:04;13.70;28.80
51595;DHT22;37677;53.254;6.594;2022-10-30T05:48:30;13.90;29.10
51595;DHT22;37677;53.254;6.594;2022-10-30T05:50:55;13.90;29.30
51595;DHT22;37677;53.254;6.594;2022-10-30T05:53:22;13.90;29.40
51595;DHT22;37677;53.254;6.594;2022-10-30T05:55:48;13.60;29.50
51595;DHT22;37677;53.254;6.594;2022-10-30T05:58:14;13.60;29.60
51595;DHT22;37677;53.254;6.594;2022-10-30T06:00:40;13.70;29.80
51595;DHT22;37677;53.254;6.594;2022-10-30T06:03:10;13.50;30.00
51595;DHT22;37677;53.254;6.594;2022-10-30T06:05:37;13.50;30.60
51595;DHT22;37677;53.254;6.594;2022-10-30T06:08:04;13.50;31.10
51595;DHT22;37677;53.254;6.594;2022-10-30T06:10:30;13.30;30.90
51595;DHT22;37677;53.254;6.594;2022-10-30T06:13:01;13.50;31.60
51595;DHT22;37677;53.254;6.594;2022-10-30T06:15:28;13.80;32.10
51595;DHT22;37677;53.254;6.594;2022-10-30T06:17:54;14.00;32.20
51595;DHT22;37677;53.254;6.594;2022-10-30T06:20:23;13.40;32.40
51595;DHT22;37677;53.254;6.594;2022-10-30T06:23:00;13.50;33.10
51595;DHT22;37677;53.254;6.594;2022-10-30T06:25:27;13.60;33.50
51595;DHT22;37677;53.254;6.594;2022-10-30T06:27:52;13.70;33.20
51595;DHT22;37677;53.254;6.594;2022-10-30T06:30:18;13.40;32.90
51595;DHT22;37677;53.254;6.594;2022-10-30T06:32:45;13.40;33.50
51595;DHT22;37677;53.254;6.594;2022-10-30T06:35:11;13.40;34.30
51595;DHT22;37677;53.254;6.594;2022-10-30T06:37:36;13.50;34.60
51595;DHT22;37677;53.254;6.594;2022-10-30T06:40:08;13.40;33.80
51595;DHT22;37677;53.254;6.594;2022-10-30T06:42:50;13.50;34.30
51595;DHT22;37677;53.254;6.594;2022-10-30T06:45:17;13.40;35.00
51595;DHT22;37677;53.254;6.594;2022-10-30T06:47:43;13.50;35.00
51595;DHT22;37677;53.254;6.594;2022-10-30T06:50:12;13.60;35.00
51595;DHT22;37677;53.254;6.594;2022-10-30T06:52:38;13.80;35.30
51595;DHT22;37677;53.254;6.594;2022-10-30T06:55:04;13.50;35.40
51595;DHT22;37677;53.254;6.594;2022-10-30T06:57:30;13.50;35.50
51595;DHT22;37677;53.254;6.594;2022-10-30T06:59:56;13.80;36.00
51595;DHT22;37677;53.254;6.594;2022-10-30T07:02:22;13.50;36.30
51595;DHT22;37677;53.254;6.594;2022-10-30T07:04:47;14.00;36.30
51595;DHT22;37677;53.254;6.594;2022-10-30T07:07:13;13.50;36.30
51595;DHT22;37677;53.254;6.594;2022-10-30T07:09:40;13.80;36.60
51595;DHT22;37677;53.254;6.594;2022-10-30T07:12:06;13.60;36.50
51595;DHT22;37677;53.254;6.594;2022-10-30T07:14:32;13.70;36.40
51595;DHT22;37677;53.254;6.594;2022-10-30T07:16:58;13.90;36.20
51595;DHT22;37677;53.254;6.594;2022-10-30T07:19:23;13.90;35.90
51595;DHT22;37677;53.254;6.594;2022-10-30T07:21:49;13.80;35.20
51595;DHT22;37677;53.254;6.594;2022-10-30T07:24:15;13.80;34.30
51595;DHT22;37677;53.254;6.594;2022-10-30T07:26:41;13.90;33.40
51595;DHT22;37677;53.254;6.594;2022-10-30T07:29:07;14.00;32.90
51595;DHT22;37677;53.254;6.594;2022-10-30T07:31:33;14.00;31.80
51595;DHT22;37677;53.254;6.594;2022-10-30T07:33:58;14.10;31.70
51595;DHT22;37677;53.254;6.594;2022-10-30T07:36:24;14.10;30.20
51595;DHT22;37677;53.254;6.594;2022-10-30T07:38:50;14.10;29.60
51595;DHT22;37677;53.254;6.594;2022-10-30T07:41:17;14.60;29.50
51595;DHT22;37677;53.254;6.594;2022-10-30T07:43:43;14.20;29.10
51595;DHT22;37677;53.254;6.594;2022-10-30T07:46:09;14.30;28.90
51595;DHT22;37677;53.254;6.594;2022-10-30T07:48:35;14.30;29.00
51595;DHT22;37677;53.254;6.594;2022-10-30T07:51:01;14.40;28.20
51595;DHT22;37677;53.254;6.594;2022-10-30T07:53:27;14.60;28.20
51595;DHT22;37677;53.254;6.594;2022-10-30T07:55:52;14.60;27.70
51595;DHT22;37677;53.254;6.594;2022-10-30T07:58:18;14.70;28.00
51595;DHT22;37677;53.254;6.594;2022-10-30T08:00:44;14.80;28.10
51595;DHT22;37677;53.254;6.594;2022-10-30T08:03:10;15.00;27.50
51595;DHT22;37677;53.254;6.594;2022-10-30T08:05:36;15.10;25.00
51595;DHT22;37677;53.254;6.594;2022-10-30T08:08:01;15.10;24.00
51595;DHT22;37677;53.254;6.594;2022-10-30T08:10:27;15.30;23.10
51595;DHT22;37677;53.254;6.594;2022-10-30T08:12:53;15.40;24.20
51595;DHT22;37677;53.254;6.594;2022-10-30T08:15:19;15.60;21.90
51595;DHT22;37677;53.254;6.594;2022-10-30T08:17:46;15.80;11.90
51595;DHT22;37677;53.254;6.594;2022-10-30T08:20:14;16.10;14.00
51595;DHT22;37677;53.254;6.594;2022-10-30T08:22:59;17.30;11.00
51595;DHT22;37677;53.254;6.594;2022-10-30T08:25:26;17.80;1.00
51595;DHT22;37677;53.254;6.594;2022-10-30T08:28:01;18.50;2.10
51595;DHT22;37677;53.254;6.594;2022-10-30T08:30:29;18.40;1.00
51595;DHT22;37677;53.254;6.594;2022-10-30T08:32:57;17.20;1.00
51595;DHT22;37677;53.254;6.594;2022-10-30T08:35:24;17.90;1.00
51595;DHT22;37677;53.254;6.594;2022-10-30T08:37:50;17.80;1.00
51595;DHT22;37677;53.254;6.594;2022-10-30T08:40:18;18.00;1.00
51595;DHT22;37677;53.254;6.594;2022-10-30T08:42:54;17.90;1.00
51595;DHT22;37677;53.254;6.594;2022-10-30T08:45:21;17.90;1.00
51595;DHT22;37677;53.254;6.594;2022-10-30T08:47:47;17.80;1.00
51595;DHT22;37677;53.254;6.594;2022-10-30T08:57:37;19.70;99.90
51595;DHT22;37677;53.254;6.594;2022-10-30T09:00:04;20.20;99.90
51595;DHT22;37677;53.254;6.594;2022-10-30T09:02:30;20.80;99.90
51595;DHT22;37677;53.254;6.594;2022-10-30T09:04:56;21.50;99.90
51595;DHT22;37677;53.254;6.594;2022-10-30T09:07:21;21.60;1.00
51595;DHT22;37677;53.254;6.594;2022-10-30T09:09:47;22.00;99.90
51595;DHT22;37677;53.254;6.594;2022-10-30T09:12:12;22.00;1.00
51595;DHT22;37677;53.254;6.594;2022-10-30T09:14:38;22.50;1.00
51595;DHT22;37677;53.254;6.594;2022-10-30T09:17:04;22.90;99.90
51595;DHT22;37677;53.254;6.594;2022-10-30T09:19:29;23.10;99.90
51595;DHT22;37677;53.254;6.594;2022-10-30T09:21:55;23.30;99.90
51595;DHT22;37677;53.254;6.594;2022-10-30T09:24:21;23.50;95.70
